Kingston Mines, Illinois
Current Conditions -  °F | °C
As of 9:54 PM on Tuesday 21 Oct 2014 (Local Time) from KPIA Reporting Station
Clear Clear  
Wind Chill: 44°   Ceiling: Unl
Heat Index: 49°   Visibility: 10mi
Dew Point: 39°   Wind: 12mph
Humidity: 69%   Direction: 70°ENE
Pressure: 30.25"   Gusts: NA
Location:  40.56°N, 89.77°W
Report Text: KPIA 220254Z 07010KT 10SM CLR 09/04 A3025 RMK AO2 SLP246 T00940039 53019
Loading
Personal Weather Stations






























Interactive Weather Map
Tropical Storm Tracking
New forecast layout! Learn more

10-Day Weather Forecast

Advertisements
Track Severe Weather on mobile